createdAt,value
2022-11-12T00:01:25.992Z,84.81
2022-11-12T00:04:13.654Z,83.06
2022-11-12T00:07:01.149Z,84.74
2022-11-12T00:09:48.787Z,84.14
2022-11-12T00:12:37.965Z,86.09
2022-11-12T00:15:25.529Z,85.00
2022-11-12T00:18:13.203Z,85.52
2022-11-12T00:21:00.367Z,86.02
2022-11-12T00:23:48.705Z,85.50
2022-11-12T00:26:36.424Z,86.06
2022-11-12T00:29:25.469Z,86.36
2022-11-12T00:32:12.924Z,86.28
2022-11-12T00:35:02.602Z,85.06
2022-11-12T00:37:55.706Z,85.03
2022-11-12T00:40:43.551Z,85.81
2022-11-12T00:43:31.135Z,87.36
2022-11-12T00:46:19.936Z,87.62
2022-11-12T00:49:07.353Z,88.02
2022-11-12T00:51:54.686Z,88.25
2022-11-12T00:54:42.581Z,94.34
2022-11-12T00:57:29.848Z,90.46
2022-11-12T01:00:19.160Z,88.92
2022-11-12T01:03:08.061Z,86.99
2022-11-12T01:05:55.396Z,85.89
2022-11-12T01:08:43.095Z,86.57
2022-11-12T01:11:31.483Z,86.17
2022-11-12T01:14:18.725Z,86.92
2022-11-12T01:17:05.867Z,88.11
2022-11-12T01:19:54.842Z,88.09
2022-11-12T01:22:42.450Z,88.10
2022-11-12T01:25:30.052Z,87.17
2022-11-12T01:28:17.065Z,85.14
2022-11-12T01:31:12.005Z,82.75
2022-11-12T01:34:01.957Z,82.15
2022-11-12T01:36:50.468Z,83.05
2022-11-12T01:39:37.886Z,81.36
2022-11-12T01:42:29.436Z,87.67
2022-11-12T01:45:17.170Z,95.60
2022-11-12T01:48:04.751Z,97.32
2022-11-12T01:50:53.281Z,98.43
2022-11-12T01:53:47.087Z,95.38
2022-11-12T01:56:34.957Z,94.00
2022-11-12T01:59:26.445Z,94.73
2022-11-12T02:02:13.846Z,93.91
2022-11-12T02:05:03.522Z,92.31
2022-11-12T02:07:52.526Z,93.18
2022-11-12T02:10:42.008Z,92.36
2022-11-12T02:13:47.114Z,90.66
2022-11-12T02:16:37.390Z,89.33
2022-11-12T02:19:24.772Z,89.12
2022-11-12T02:22:13.705Z,87.94
2022-11-12T02:25:01.092Z,87.83
2022-11-12T02:27:51.990Z,85.44
2022-11-12T02:30:41.500Z,90.48
2022-11-12T02:33:28.935Z,91.34
2022-11-12T02:36:16.488Z,91.97
2022-11-12T02:39:05.554Z,92.36
2022-11-12T02:41:53.006Z,88.33
2022-11-12T02:44:40.726Z,87.79
2022-11-12T02:47:28.247Z,89.68
2022-11-12T02:50:15.953Z,88.84
2022-11-12T02:53:04.141Z,82.87
2022-11-12T02:55:53.062Z,81.40
2022-11-12T02:58:40.640Z,81.28
2022-11-12T03:01:27.864Z,81.17
2022-11-12T03:04:15.340Z,85.24
2022-11-12T03:07:03.232Z,87.53
2022-11-12T03:09:50.742Z,91.41
2022-11-12T03:12:39.759Z,90.82
2022-11-12T03:15:27.857Z,94.54
2022-11-12T03:18:15.370Z,94.31
2022-11-12T03:21:03.157Z,92.17
2022-11-12T03:23:50.275Z,90.30
2022-11-12T03:26:37.866Z,90.90
2022-11-12T03:29:27.364Z,88.66
2022-11-12T03:32:14.775Z,92.68
2022-11-12T03:35:02.104Z,92.82
2022-11-12T03:37:49.558Z,93.46
2022-11-12T03:40:37.178Z,92.57
2022-11-12T03:43:24.342Z,91.09
2022-11-12T03:46:13.539Z,95.17
2022-11-12T03:49:02.737Z,95.82
2022-11-12T03:51:49.988Z,96.26
2022-11-12T03:54:37.205Z,97.49
2022-11-12T03:57:24.383Z,96.84
2022-11-12T04:00:13.674Z,96.55
2022-11-12T04:03:02.612Z,94.49
2022-11-12T04:06:07.289Z,96.11
2022-11-12T04:08:54.659Z,96.15
2022-11-12T04:11:42.180Z,100.00
2022-11-12T04:14:28.600Z,100.00
2022-11-12T04:17:33.396Z,96.29
2022-11-12T04:20:39.804Z,96.35
2022-11-12T04:23:27.326Z,95.47
2022-11-12T04:26:25.411Z,96.25
2022-11-12T04:29:31.060Z,95.78
2022-11-12T04:32:21.712Z,94.65
2022-11-12T04:35:10.014Z,95.41
2022-11-12T04:37:58.980Z,96.41
2022-11-12T04:41:09.206Z,95.54
2022-11-12T04:44:14.304Z,92.84
2022-11-12T04:47:02.019Z,94.31
2022-11-12T04:49:49.202Z,95.06
2022-11-12T04:52:36.426Z,96.15
2022-11-12T04:55:25.343Z,96.93
2022-11-12T04:58:12.934Z,96.59
2022-11-12T05:01:00.405Z,97.62
2022-11-12T05:03:49.125Z,97.42
2022-11-12T05:06:54.775Z,99.17
2022-11-12T05:09:42.895Z,99.76
2022-11-12T05:12:31.448Z,100.00
2022-11-12T05:15:19.872Z,100.00
2022-11-12T05:18:07.499Z,100.00
2022-11-12T05:20:54.820Z,100.00
2022-11-12T05:23:42.068Z,100.00
2022-11-12T05:26:30.501Z,99.89
2022-11-12T05:29:20.020Z,97.61
2022-11-12T05:32:08.592Z,98.76
2022-11-12T05:34:55.799Z,97.38
2022-11-12T05:37:42.731Z,99.25
2022-11-12T05:40:30.119Z,100.00
2022-11-12T05:43:17.729Z,100.00
2022-11-12T05:46:06.832Z,100.00
2022-11-12T05:48:53.897Z,100.00
2022-11-12T05:51:41.652Z,100.00
2022-11-12T05:54:29.603Z,99.35
2022-11-12T05:57:16.787Z,100.00
2022-11-12T06:00:04.724Z,100.00
2022-11-12T06:02:58.097Z,100.00
2022-11-12T06:05:45.592Z,98.22
2022-11-12T06:08:32.917Z,97.61
2022-11-12T06:11:20.133Z,99.74
2022-11-12T06:14:07.694Z,98.70
2022-11-12T06:16:55.318Z,96.19
2022-11-12T06:19:44.030Z,96.61
2022-11-12T06:22:31.506Z,97.58
2022-11-12T06:25:19.338Z,97.06
2022-11-12T06:28:06.850Z,95.80
2022-11-12T06:30:54.803Z,93.73
2022-11-12T06:33:42.246Z,94.83
2022-11-12T06:36:31.404Z,97.55
2022-11-12T06:39:18.925Z,99.21
2022-11-12T06:42:06.345Z,95.07
2022-11-12T06:44:53.873Z,85.62
2022-11-12T06:47:41.004Z,92.79
2022-11-12T06:50:28.572Z,92.15
2022-11-12T06:53:17.572Z,94.12
2022-11-12T06:56:06.636Z,91.62
2022-11-12T06:58:54.367Z,90.36
2022-11-12T07:01:41.606Z,89.74
2022-11-12T07:04:29.604Z,90.88
2022-11-12T07:07:17.132Z,90.66
2022-11-12T07:10:06.480Z,92.73
2022-11-12T07:12:55.331Z,92.60
2022-11-12T07:15:42.686Z,90.29
2022-11-12T07:18:30.220Z,91.06
2022-11-12T07:21:19.036Z,95.90
2022-11-12T07:24:06.969Z,97.37
2022-11-12T07:26:55.602Z,89.57
2022-11-12T07:29:48.205Z,87.40
2022-11-12T07:32:42.817Z,89.58
2022-11-12T07:35:32.302Z,92.24
2022-11-12T07:38:19.732Z,93.07
2022-11-12T07:41:08.792Z,97.61
2022-11-12T07:43:57.440Z,94.63
2022-11-12T07:46:44.995Z,90.19
2022-11-12T07:49:32.561Z,87.19
2022-11-12T07:52:19.884Z,86.06
2022-11-12T07:55:08.237Z,88.02
2022-11-12T07:57:55.629Z,92.40
2022-11-12T08:00:44.214Z,87.99
2022-11-12T08:03:31.557Z,85.86
2022-11-12T08:06:19.056Z,85.86
2022-11-12T08:09:08.779Z,85.75
2022-11-12T08:11:56.211Z,82.87
2022-11-12T08:14:43.487Z,81.71
2022-11-12T08:17:32.041Z,80.04
2022-11-12T08:20:19.658Z,77.09
2022-11-12T08:23:07.184Z,73.87
2022-11-12T08:25:54.358Z,73.22
2022-11-12T08:28:41.624Z,70.06
2022-11-12T08:31:29.568Z,70.77
2022-11-12T08:34:22.518Z,66.40
2022-11-12T08:37:10.446Z,63.25
2022-11-12T08:39:57.658Z,58.34
2022-11-12T08:42:45.622Z,53.00
2022-11-12T08:45:34.422Z,51.49
2022-11-12T08:48:21.833Z,51.17
2022-11-12T08:51:10.900Z,49.99
2022-11-12T08:53:58.266Z,50.83
2022-11-12T08:56:45.876Z,49.20
2022-11-12T08:59:32.921Z,50.09
2022-11-12T09:02:20.403Z,50.92
2022-11-12T09:05:08.403Z,50.69
2022-11-12T09:08:00.766Z,51.16
2022-11-12T09:10:48.916Z,48.90
2022-11-12T09:13:36.636Z,50.47
2022-11-12T09:16:24.654Z,50.72
2022-11-12T09:19:11.934Z,52.13
2022-11-12T09:21:59.536Z,53.22
2022-11-12T09:24:48.425Z,54.56
2022-11-12T09:27:35.548Z,53.04
2022-11-12T09:30:23.508Z,53.28
2022-11-12T09:33:11.089Z,53.46
2022-11-12T09:36:01.985Z,54.92
2022-11-12T09:38:49.458Z,57.34
2022-11-12T09:41:40.362Z,61.68
2022-11-12T09:44:30.648Z,57.67
2022-11-12T09:47:26.245Z,57.30
2022-11-12T09:50:21.997Z,59.99
2022-11-12T09:53:15.538Z,61.23
2022-11-12T09:56:07.393Z,62.67
2022-11-12T09:58:56.027Z,63.62
2022-11-12T10:01:53.711Z,66.51
2022-11-12T10:05:01.986Z,66.74
2022-11-12T10:08:08.162Z,67.27
2022-11-12T10:11:07.105Z,69.02
2022-11-12T10:14:11.336Z,68.13
2022-11-12T10:17:07.801Z,66.43
2022-11-12T10:20:02.351Z,63.42
2022-11-12T10:23:06.749Z,67.18
2022-11-12T10:25:58.248Z,65.12
2022-11-12T10:28:48.930Z,64.39
2022-11-12T10:31:38.047Z,63.75
2022-11-12T10:34:26.276Z,63.79
2022-11-12T10:37:20.220Z,61.57
2022-11-12T10:40:29.893Z,60.69
2022-11-12T10:43:24.828Z,60.63
2022-11-12T10:46:20.790Z,56.09
2022-11-12T10:49:23.611Z,59.47
2022-11-12T10:52:23.210Z,60.39
2022-11-12T10:55:19.097Z,56.92
2022-11-12T10:58:09.085Z,58.95
2022-11-12T11:00:59.294Z,57.63
2022-11-12T11:03:49.809Z,61.75
2022-11-12T11:06:38.585Z,62.95
2022-11-12T11:09:27.317Z,63.11
2022-11-12T11:12:26.589Z,65.62
2022-11-12T11:15:21.693Z,61.64
2022-11-12T11:18:11.534Z,61.87
2022-11-12T11:21:22.544Z,62.56
2022-11-12T11:24:23.561Z,70.77
2022-11-12T11:27:25.620Z,75.69
2022-11-12T11:30:15.536Z,76.36
2022-11-12T11:33:17.194Z,77.14
2022-11-12T11:36:19.339Z,96.38
2022-11-12T11:39:19.463Z,100.00
2022-11-12T11:42:26.305Z,100.00
2022-11-12T11:45:18.528Z,100.00
2022-11-12T11:48:15.794Z,100.00
2022-11-12T11:51:11.515Z,100.00
2022-11-12T11:54:08.277Z,100.00
2022-11-12T11:57:00.067Z,100.00
2022-11-12T12:00:04.126Z,100.00
2022-11-12T12:03:08.261Z,100.00
2022-11-12T12:06:18.878Z,100.00
2022-11-12T12:09:20.512Z,100.00
2022-11-12T12:12:19.491Z,100.00
2022-11-12T12:15:30.724Z,100.00
2022-11-12T12:18:29.459Z,100.00
2022-11-12T12:21:18.249Z,100.00
2022-11-12T12:24:12.167Z,100.00
2022-11-12T12:27:05.761Z,100.00
2022-11-12T12:29:57.473Z,100.00
2022-11-12T12:32:53.858Z,100.00
2022-11-12T12:35:52.975Z,100.00
2022-11-12T12:38:45.377Z,100.00
2022-11-12T12:41:40.672Z,100.00
2022-11-12T12:44:45.220Z,100.00
2022-11-12T12:47:39.680Z,100.00
2022-11-12T12:50:28.760Z,100.00
2022-11-12T12:53:32.360Z,100.00
2022-11-12T12:56:47.627Z,100.00
2022-11-12T12:59:35.590Z,100.00
2022-11-12T13:02:25.588Z,100.00
2022-11-12T13:05:30.019Z,100.00
2022-11-12T13:08:24.717Z,100.00
2022-11-12T13:11:52.260Z,100.00
2022-11-12T13:15:02.419Z,100.00
2022-11-12T13:17:51.866Z,100.00
2022-11-12T13:20:43.000Z,100.00
2022-11-12T13:24:05.426Z,100.00
2022-11-12T13:26:56.911Z,100.00
2022-11-12T13:29:45.489Z,100.00
2022-11-12T13:32:38.714Z,100.00
2022-11-12T13:35:31.532Z,100.00
2022-11-12T13:38:20.802Z,100.00
2022-11-12T13:41:16.341Z,98.73
2022-11-12T13:44:08.689Z,100.00
2022-11-12T13:46:56.343Z,100.00
2022-11-12T13:49:45.117Z,100.00
2022-11-12T13:52:33.280Z,99.89
2022-11-12T13:55:23.838Z,95.54
2022-11-12T13:58:20.893Z,93.36
2022-11-12T14:01:09.290Z,95.04
2022-11-12T14:03:56.702Z,92.65
2022-11-12T14:06:48.005Z,92.09
2022-11-12T14:09:50.925Z,88.56
2022-11-12T14:13:02.017Z,89.00
2022-11-12T14:16:11.926Z,89.32
2022-11-12T14:19:30.084Z,91.39
2022-11-12T14:22:20.000Z,94.37
2022-11-12T14:25:15.232Z,96.42
2022-11-12T14:28:03.972Z,97.74
2022-11-12T14:30:51.429Z,96.54
2022-11-12T14:33:38.842Z,100.00
2022-11-12T14:36:27.845Z,100.00
2022-11-12T14:39:15.825Z,100.00
2022-11-12T14:42:04.176Z,100.00
2022-11-12T14:44:52.776Z,100.00
2022-11-12T14:47:40.057Z,100.00
2022-11-12T14:50:34.537Z,100.00
2022-11-12T14:53:32.869Z,100.00
2022-11-12T14:56:35.190Z,100.00
2022-11-12T14:59:23.184Z,100.00
2022-11-12T15:05:23.571Z,100.00
2022-11-12T15:08:12.910Z,100.00
2022-11-12T15:11:23.248Z,100.00
2022-11-12T15:14:14.310Z,100.00
2022-11-12T15:17:01.966Z,100.00
2022-11-12T15:19:50.869Z,100.00
2022-11-12T15:22:38.441Z,100.00
2022-11-12T15:25:28.120Z,100.00
2022-11-12T15:28:22.974Z,100.00
2022-11-12T15:31:19.840Z,100.00
2022-11-12T15:34:28.136Z,100.00
2022-11-12T15:37:26.704Z,100.00
2022-11-12T15:40:19.107Z,100.00
2022-11-12T15:43:15.121Z,100.00
2022-11-12T15:46:03.131Z,99.14
2022-11-12T15:48:55.509Z,91.31
2022-11-12T15:51:43.449Z,92.40
2022-11-12T15:54:35.609Z,98.56
2022-11-12T15:57:29.635Z,100.00
2022-11-12T16:00:18.867Z,100.00
2022-11-12T16:03:14.754Z,100.00
2022-11-12T16:06:07.352Z,100.00
2022-11-12T16:08:56.104Z,100.00
2022-11-12T16:11:44.665Z,100.00
2022-11-12T16:14:32.391Z,100.00
2022-11-12T16:17:21.101Z,100.00
2022-11-12T16:20:15.447Z,89.00
2022-11-12T16:23:04.043Z,82.52
2022-11-12T16:25:51.665Z,87.76
2022-11-12T16:28:40.222Z,91.90
2022-11-12T16:31:28.032Z,94.81
2022-11-12T16:34:15.550Z,96.24
2022-11-12T16:37:04.180Z,96.38
2022-11-12T16:39:51.638Z,95.96
2022-11-12T16:42:45.511Z,99.02
2022-11-12T16:45:38.840Z,99.34
2022-11-12T16:48:26.415Z,100.00
2022-11-12T16:51:17.947Z,100.00
2022-11-12T16:54:05.420Z,100.00
2022-11-12T16:56:52.873Z,100.00
2022-11-12T16:59:40.464Z,99.54
2022-11-12T17:02:29.301Z,100.00
2022-11-12T17:05:21.070Z,100.00
2022-11-12T17:08:10.132Z,100.00
2022-11-12T17:10:57.751Z,100.00
2022-11-12T17:13:45.117Z,100.00
2022-11-12T17:16:33.012Z,100.00
2022-11-12T17:19:21.915Z,100.00
2022-11-12T17:22:09.209Z,100.00
2022-11-12T17:24:56.628Z,100.00
2022-11-12T17:27:43.980Z,100.00
2022-11-12T17:30:31.532Z,100.00
2022-11-12T17:33:18.714Z,100.00
2022-11-12T17:36:09.272Z,100.00
2022-11-12T17:38:57.832Z,100.00
2022-11-12T17:41:45.226Z,100.00
2022-11-12T17:44:32.621Z,100.00
2022-11-12T17:47:19.881Z,100.00
2022-11-12T17:50:09.169Z,100.00
2022-11-12T17:52:58.038Z,100.00
2022-11-12T17:55:45.635Z,100.00
2022-11-12T17:58:33.499Z,100.00
2022-11-12T18:01:24.719Z,100.00
2022-11-12T18:04:12.845Z,100.00
2022-11-12T18:07:00.431Z,100.00
2022-11-12T18:09:49.853Z,100.00
2022-11-12T18:12:37.273Z,100.00
2022-11-12T18:15:25.018Z,100.00
2022-11-12T18:18:12.474Z,100.00
2022-11-12T18:20:59.651Z,100.00
2022-11-12T18:23:47.498Z,100.00
2022-11-12T18:26:36.669Z,100.00
2022-11-12T18:29:24.510Z,100.00
2022-11-12T18:32:12.162Z,100.00
2022-11-12T18:34:59.721Z,100.00
2022-11-12T18:37:46.961Z,100.00
2022-11-12T18:40:34.388Z,100.00
2022-11-12T18:43:23.228Z,100.00
2022-11-12T18:46:11.866Z,100.00
2022-11-12T18:48:59.133Z,100.00
2022-11-12T18:51:46.648Z,99.37
2022-11-12T18:54:34.364Z,99.23
2022-11-12T18:57:22.472Z,98.75
2022-11-12T19:00:13.372Z,96.77
2022-11-12T19:03:01.076Z,100.00
2022-11-12T19:05:48.812Z,100.00
2022-11-12T19:08:36.908Z,100.00
2022-11-12T19:11:24.184Z,100.00
2022-11-12T19:14:12.366Z,100.00
2022-11-12T19:17:01.150Z,100.00
2022-11-12T19:19:48.727Z,100.00
2022-11-12T19:22:35.946Z,100.00
2022-11-12T19:25:23.266Z,100.00
2022-11-12T19:28:10.366Z,100.00
2022-11-12T19:30:57.846Z,100.00
2022-11-12T19:33:47.921Z,100.00
2022-11-12T19:36:36.344Z,100.00
2022-11-12T19:39:24.103Z,100.00
2022-11-12T19:42:11.242Z,100.00
2022-11-12T19:44:58.511Z,100.00
2022-11-12T19:47:46.217Z,100.00
2022-11-12T19:50:37.149Z,100.00
2022-11-12T19:53:24.348Z,100.00
2022-11-12T19:56:13.592Z,100.00
2022-11-12T19:59:01.731Z,100.00
2022-11-12T20:01:49.200Z,100.00
2022-11-12T20:04:36.896Z,100.00
2022-11-12T20:07:25.508Z,100.00
2022-11-12T20:10:13.325Z,100.00
2022-11-12T20:13:02.101Z,100.00
2022-11-12T20:15:49.789Z,100.00
2022-11-12T20:18:36.997Z,100.00
2022-11-12T20:21:24.588Z,100.00
2022-11-12T20:24:13.698Z,100.00
2022-11-12T20:27:01.054Z,100.00
2022-11-12T20:29:48.289Z,100.00
2022-11-12T20:32:35.927Z,100.00
2022-11-12T20:35:23.800Z,100.00
2022-11-12T20:38:10.900Z,100.00
2022-11-12T20:41:02.822Z,100.00
2022-11-12T20:43:53.851Z,100.00
2022-11-12T20:46:41.384Z,100.00
2022-11-12T20:49:29.938Z,100.00
2022-11-12T20:52:17.424Z,100.00
2022-11-12T20:55:05.160Z,100.00
2022-11-12T20:57:53.788Z,100.00
2022-11-12T21:00:41.470Z,100.00
2022-11-12T21:03:29.003Z,100.00
2022-11-12T21:06:18.621Z,100.00
2022-11-12T21:09:06.121Z,100.00
2022-11-12T21:11:53.809Z,100.00
2022-11-12T21:14:47.429Z,100.00
2022-11-12T21:17:37.488Z,100.00
2022-11-12T21:20:24.941Z,100.00
2022-11-12T21:23:12.284Z,100.00
2022-11-12T21:26:04.505Z,100.00
2022-11-12T21:28:54.131Z,100.00
2022-11-12T21:31:42.753Z,100.00
2022-11-12T21:34:30.425Z,100.00
2022-11-12T21:37:20.025Z,100.00
2022-11-12T21:40:09.195Z,100.00
2022-11-12T21:42:56.352Z,100.00
2022-11-12T21:45:47.129Z,100.00
2022-11-12T21:48:36.276Z,100.00
2022-11-12T21:51:25.530Z,100.00
2022-11-12T21:54:15.111Z,100.00
2022-11-12T21:57:03.349Z,100.00
2022-11-12T21:59:50.621Z,100.00
2022-11-12T22:02:38.515Z,100.00
2022-11-12T22:05:27.396Z,100.00
2022-11-12T22:08:15.697Z,100.00
2022-11-12T22:11:04.615Z,100.00
2022-11-12T22:13:51.921Z,100.00
2022-11-12T22:16:39.030Z,100.00
2022-11-12T22:19:26.740Z,100.00
2022-11-12T22:22:15.776Z,100.00
2022-11-12T22:25:03.839Z,100.00
2022-11-12T22:27:51.373Z,100.00
2022-11-12T22:30:38.472Z,99.92
2022-11-12T22:33:25.784Z,99.15
2022-11-12T22:36:14.965Z,98.41
2022-11-12T22:39:06.021Z,98.11
2022-11-12T22:41:53.312Z,98.71
2022-11-12T22:44:40.897Z,97.44
2022-11-12T22:47:28.328Z,94.53
2022-11-12T22:50:16.234Z,94.35
2022-11-12T22:53:03.687Z,93.97
2022-11-12T22:55:52.404Z,91.96
2022-11-12T22:58:42.372Z,90.99
2022-11-12T23:01:32.098Z,89.18
2022-11-12T23:04:19.804Z,88.31
2022-11-12T23:07:07.177Z,86.99
2022-11-12T23:09:54.825Z,85.64
2022-11-12T23:12:43.697Z,84.84
2022-11-12T23:15:31.292Z,85.62
2022-11-12T23:18:18.716Z,87.67
2022-11-12T23:21:08.057Z,87.34
2022-11-12T23:23:57.389Z,87.09
2022-11-12T23:26:44.914Z,89.56
2022-11-12T23:29:33.662Z,87.26
2022-11-12T23:32:21.236Z,86.90
2022-11-12T23:35:08.956Z,87.91
2022-11-12T23:37:56.872Z,88.83
2022-11-12T23:40:52.718Z,90.07
2022-11-12T23:43:40.111Z,90.92
2022-11-12T23:46:28.582Z,89.38
2022-11-12T23:49:16.115Z,88.20
2022-11-12T23:52:05.188Z,86.18
2022-11-12T23:54:52.767Z,85.55
2022-11-12T23:57:40.199Z,100.00
